Time;durP1;ratioP1;P1;durP2;ratioP2;P2;SDS_P1;SDS_P2;PMS_P1;PMS_P2;Temp;Humidity;BMP_temperature;BMP_pressure;BME280_temperature;BME280_humidity;BME280_pressure;Samples;Min_cycle;Max_cycle;Signal;HPM_P1;HPM_P2
2023/01/05 00:02:54;;;;;;;18.63;3.27;;;;;10.20;101319.00;;;;10512482;28;20200;-78
2023/01/05 00:07:56;;;;;;;17.37;3.50;;;;;10.20;101315.00;;;;10512023;28;20343;-78
2023/01/05 00:23:39;;;;;;;22.83;3.83;;;;;10.30;101323.00;;;;10482631;28;20182;-78
2023/01/05 00:28:41;;;;;;;18.03;3.83;;;;;10.30;101319.00;;;;10524259;28;20243;-78
2023/01/05 00:33:44;;;;;;;18.70;3.90;;;;;10.40;101321.00;;;;10507274;28;20197;-78
2023/01/05 00:38:45;;;;;;;24.77;3.83;;;;;10.40;101325.00;;;;10465740;28;20202;-78
2023/01/05 00:43:47;;;;;;;29.00;4.47;;;;;10.40;101324.00;;;;10482261;28;20683;-77
2023/01/05 00:48:49;;;;;;;22.47;3.73;;;;;10.40;101307.00;;;;10487829;28;20274;-78
2023/01/05 00:53:51;;;;;;;24.83;4.07;;;;;10.40;101306.00;;;;10529101;28;20196;-78
2023/01/05 00:58:54;;;;;;;17.87;3.03;;;;;10.40;101309.00;;;;10464784;28;20194;-78
2023/01/05 01:03:56;;;;;;;20.10;4.47;;;;;10.30;101307.00;;;;10464449;28;20189;-78
2023/01/05 01:08:58;;;;;;;14.77;3.10;;;;;10.30;101311.00;;;;10480595;28;20214;-78
2023/01/05 01:14:00;;;;;;;25.97;4.10;;;;;10.30;101325.00;;;;10480305;28;20190;-78
2023/01/05 01:19:02;;;;;;;14.23;3.57;;;;;10.20;101326.00;;;;10463808;28;20185;-79
2023/01/05 01:24:07;;;;;;;18.67;3.37;;;;;10.20;101326.00;;;;10479871;28;20240;-78
2023/01/05 01:29:09;;;;;;;25.13;3.93;;;;;10.10;101328.00;;;;10497658;28;20214;-77
2023/01/05 01:34:11;;;;;;;18.80;3.50;;;;;10.10;101323.00;;;;10480593;28;20277;-78
2023/01/05 01:39:14;;;;;;;26.30;3.60;;;;;10.00;101343.00;;;;10482339;28;20296;-78
2023/01/05 01:44:54;;;;;;;13.27;3.33;;;;;9.90;101356.00;;;;10522229;28;20197;-78
2023/01/05 01:50:12;;;;;;;14.03;3.53;;;;;10.00;101352.00;;;;10522011;28;20193;-78
2023/01/05 01:55:15;;;;;;;20.40;3.67;;;;;10.10;101344.00;;;;10521409;28;20228;-78
2023/01/05 02:00:18;;;;;;;18.93;4.17;;;;;10.20;101348.00;;;;10520902;28;20264;-79
2023/01/05 02:05:23;;;;;;;19.67;3.57;;;;;10.30;101350.00;;;;10504408;28;20215;-80
2023/01/05 02:10:50;;;;;;;24.27;3.93;;;;;10.40;101372.00;;;;10521507;28;20200;-80
2023/01/05 02:16:12;;;;;;;16.57;3.37;;;;;10.50;101381.00;;;;10487674;28;20180;-80
2023/01/05 02:21:40;;;;;;;18.10;3.93;;;;;10.50;101380.00;;;;10520954;28;20196;-79
2023/01/05 02:27:04;;;;;;;23.87;4.43;;;;;10.50;101380.00;;;;10478143;28;20233;-80
2023/01/05 02:32:20;;;;;;;20.67;4.57;;;;;10.50;101392.00;;;;10492545;28;20193;-80
2023/01/05 02:37:33;;;;;;;23.03;4.47;;;;;10.50;101383.00;;;;10481024;28;20243;-80
2023/01/05 02:42:38;;;;;;;20.73;3.60;;;;;10.50;101387.00;;;;10477939;28;20224;-80
2023/01/05 02:47:44;;;;;;;23.03;4.13;;;;;10.50;101396.00;;;;10462405;28;20316;-80
2023/01/05 02:52:59;;;;;;;18.83;3.80;;;;;10.50;101391.00;;;;10450945;28;20201;-80
2023/01/05 02:58:09;;;;;;;20.43;3.97;;;;;10.50;101392.00;;;;10447258;28;20205;-80
2023/01/05 03:03:20;;;;;;;24.33;4.30;;;;;10.50;101375.00;;;;10452877;28;20623;-80
2023/01/05 03:08:24;;;;;;;17.87;3.40;;;;;10.50;101399.00;;;;10486338;28;20260;-80
2023/01/05 03:13:41;;;;;;;25.03;3.80;;;;;10.50;101397.00;;;;10486662;28;20186;-80
2023/01/05 03:40:32;;;;;;;13.77;2.97;;;;;10.60;101384.00;;;;10452705;28;20221;-79
2023/01/05 03:45:39;;;;;;;25.10;3.70;;;;;10.50;101390.00;;;;10468237;28;20212;-80
2023/01/05 03:50:45;;;;;;;25.80;3.97;;;;;10.50;101399.00;;;;10503359;28;20193;-79
2023/01/05 03:55:49;;;;;;;25.40;4.03;;;;;10.60;101412.00;;;;10477805;28;20192;-80
2023/01/05 04:00:52;;;;;;;27.73;4.73;;;;;10.60;101411.00;;;;10493976;28;20251;-80
2023/01/05 04:05:57;;;;;;;21.97;3.63;;;;;10.50;101419.00;;;;10493489;28;20205;-80
2023/01/05 04:11:17;;;;;;;27.37;4.37;;;;;10.60;101423.00;;;;10507007;28;20197;-80
2023/01/05 04:16:39;;;;;;;22.23;5.37;;;;;10.60;101411.00;;;;10519033;28;20178;-80
2023/01/05 04:21:48;;;;;;;23.77;4.10;;;;;10.60;101415.00;;;;10466757;28;20247;-80
2023/01/05 04:26:51;;;;;;;23.20;4.50;;;;;10.60;101430.00;;;;10499639;28;20217;-80
2023/01/05 04:31:58;;;;;;;25.43;4.63;;;;;10.60;101422.00;;;;10482983;28;20240;-80
2023/01/05 04:37:00;;;;;;;21.23;3.80;;;;;10.60;101430.00;;;;10493192;28;20197;-80
2023/01/05 04:42:04;;;;;;;26.60;4.63;;;;;10.50;101427.00;;;;10509067;28;20224;-80
2023/01/05 04:47:08;;;;;;;23.73;4.07;;;;;10.50;101430.00;;;;10508601;28;20217;-80
2023/01/05 04:52:13;;;;;;;24.47;4.90;;;;;10.40;101429.00;;;;10484876;28;20198;-81
2023/01/05 04:57:17;;;;;;;22.37;4.30;;;;;10.40;101428.00;;;;10450958;28;20243;-80
2023/01/05 05:02:21;;;;;;;19.33;3.57;;;;;10.40;101430.00;;;;10482709;28;20567;-80
2023/01/05 05:07:25;;;;;;;16.23;3.43;;;;;10.40;101426.00;;;;10465651;28;20221;-80
2023/01/05 05:12:27;;;;;;;27.43;3.80;;;;;10.40;101426.00;;;;10478960;28;20270;-80
2023/01/05 05:17:29;;;;;;;18.30;4.10;;;;;10.40;101426.00;;;;10490603;28;20273;-81
2023/01/05 05:22:32;;;;;;;18.93;4.37;;;;;10.50;101425.00;;;;10505689;28;20197;-81
2023/01/05 05:27:36;;;;;;;19.03;3.90;;;;;10.40;101435.00;;;;10449039;28;20272;-80
2023/01/05 05:32:38;;;;;;;22.43;3.80;;;;;10.30;101439.00;;;;10501812;28;20189;-80
2023/01/05 05:37:45;;;;;;;30.93;5.37;;;;;10.30;101450.00;;;;10497657;28;20192;-80
2023/01/05 05:42:54;;;;;;;21.73;3.43;;;;;10.30;101465.00;;;;10506012;28;20222;-80
2023/01/05 05:47:56;;;;;;;27.77;3.93;;;;;10.30;101460.00;;;;10505850;28;20228;-80
2023/01/05 05:52:59;;;;;;;30.87;7.73;;;;;10.30;101468.00;;;;10506113;28;20189;-80
2023/01/05 05:58:00;;;;;;;23.37;4.67;;;;;10.30;101483.00;;;;10459399;28;20190;-80
2023/01/05 06:03:02;;;;;;;26.50;4.57;;;;;10.40;101488.00;;;;10469771;28;20205;-80
2023/01/05 06:08:05;;;;;;;22.27;3.97;;;;;10.40;101500.00;;;;10489037;28;20236;-80
2023/01/05 06:13:07;;;;;;;15.10;3.43;;;;;10.40;101501.00;;;;10488358;28;20201;-80
2023/01/05 06:18:09;;;;;;;23.93;3.80;;;;;10.40;101491.00;;;;10489165;28;20260;-80
2023/01/05 06:23:11;;;;;;;25.60;3.93;;;;;10.40;101503.00;;;;10504824;28;20200;-80
2023/01/05 06:28:12;;;;;;;21.53;3.80;;;;;10.40;101506.00;;;;10482382;28;20270;-80
2023/01/05 06:33:21;;;;;;;24.03;4.27;;;;;10.40;101505.00;;;;10496248;28;20246;-80
2023/01/05 06:38:23;;;;;;;16.63;3.90;;;;;10.40;101510.00;;;;10477120;28;20189;-80
2023/01/05 06:43:25;;;;;;;25.07;3.70;;;;;10.40;101512.00;;;;10509417;28;20189;-80
2023/01/05 06:48:26;;;;;;;34.33;4.63;;;;;10.30;101527.00;;;;10460249;28;20217;-80
2023/01/05 06:53:28;;;;;;;25.87;4.90;;;;;10.30;101530.00;;;;10474390;28;20571;-80
2023/01/05 06:58:30;;;;;;;16.43;4.00;;;;;10.30;101537.00;;;;10522280;28;20635;-80
2023/01/05 07:03:32;;;;;;;19.60;4.27;;;;;10.20;101542.00;;;;10501011;28;20820;-80
2023/01/05 07:08:34;;;;;;;20.20;4.13;;;;;10.20;101546.00;;;;10518608;28;20574;-80
2023/01/05 07:13:36;;;;;;;24.63;4.43;;;;;10.20;101555.00;;;;10504214;28;20235;-80
2023/01/05 07:18:38;;;;;;;24.07;4.20;;;;;10.30;101558.00;;;;10483019;28;20193;-80
2023/01/05 07:23:40;;;;;;;34.20;4.77;;;;;10.30;101552.00;;;;10500947;28;20636;-80
2023/01/05 07:28:42;;;;;;;22.17;4.23;;;;;10.20;101555.00;;;;10492987;28;20221;-80
2023/01/05 07:33:44;;;;;;;22.40;3.83;;;;;10.20;101567.00;;;;10459413;28;20201;-80
2023/01/05 07:38:46;;;;;;;23.27;4.80;;;;;10.10;101572.00;;;;10508654;28;20217;-80
2023/01/05 07:43:48;;;;;;;18.67;3.70;;;;;10.00;101581.00;;;;10460005;28;20189;-80
2023/01/05 07:48:51;;;;;;;22.87;4.80;;;;;10.00;101585.00;;;;10452590;28;20225;-80
2023/01/05 07:53:54;;;;;;;30.90;4.50;;;;;10.10;101598.00;;;;10502690;28;20251;-81
2023/01/05 07:58:56;;;;;;;18.83;3.70;;;;;10.20;101617.00;;;;10510105;28;20197;-80
2023/01/05 08:03:58;;;;;;;24.53;4.00;;;;;10.20;101609.00;;;;10456759;28;20207;-80
2023/01/05 08:10:27;;;;;;;25.97;4.73;;;;;10.30;101614.00;;;;10494436;28;20299;-80
2023/01/05 08:14:22;;;;;;;20.37;4.73;;;;;10.30;101613.00;;;;10492097;28;20207;-80
2023/01/05 08:19:24;;;;;;;22.60;4.43;;;;;10.40;101613.00;;;;10499346;28;20292;-80
2023/01/05 08:24:26;;;;;;;24.07;4.00;;;;;10.40;101621.00;;;;10474858;28;20209;-80
2023/01/05 08:29:28;;;;;;;31.03;4.33;;;;;10.40;101625.00;;;;10483973;28;20320;-80
2023/01/05 08:34:30;;;;;;;26.60;4.20;;;;;10.50;101626.00;;;;10449880;28;20200;-80
2023/01/05 08:39:36;;;;;;;19.77;4.03;;;;;10.60;101633.00;;;;10466438;28;20247;-80
2023/01/05 08:44:37;;;;;;;27.20;4.77;;;;;10.80;101632.00;;;;10476807;28;20193;-80
2023/01/05 08:49:40;;;;;;;20.13;4.33;;;;;10.70;101625.00;;;;10467177;28;20216;-80
2023/01/05 08:54:42;;;;;;;30.23;5.07;;;;;10.70;101640.00;;;;10490161;28;20216;-80
2023/01/05 08:59:44;;;;;;;23.13;4.63;;;;;10.80;101647.00;;;;10508025;28;20224;-80
2023/01/05 09:04:46;;;;;;;21.00;4.33;;;;;10.80;101651.00;;;;10491267;28;20197;-80
2023/01/05 09:09:48;;;;;;;29.53;4.53;;;;;10.80;101656.00;;;;10506721;28;20863;-80
2023/01/05 09:14:50;;;;;;;26.97;4.50;;;;;10.90;101655.00;;;;10506505;28;20255;-80
2023/01/05 09:19:52;;;;;;;27.37;5.23;;;;;10.90;101654.00;;;;10461055;28;20223;-80
2023/01/05 09:24:54;;;;;;;24.33;4.50;;;;;11.00;101645.00;;;;10480603;28;20231;-80
2023/01/05 09:29:56;;;;;;;24.00;4.23;;;;;11.20;101655.00;;;;10481693;28;20709;-80
2023/01/05 09:34:58;;;;;;;26.37;4.87;;;;;11.30;101663.00;;;;10502760;28;20193;-80
2023/01/05 09:40:00;;;;;;;28.90;4.87;;;;;11.40;101675.00;;;;10489333;28;20177;-80
2023/01/05 09:45:06;;;;;;;26.10;3.87;;;;;11.50;101684.00;;;;10488765;28;20216;-80
2023/01/05 09:50:19;;;;;;;24.80;4.67;;;;;11.60;101683.00;;;;10489200;28;20216;-80
2023/01/05 09:55:23;;;;;;;25.03;4.07;;;;;11.70;101689.00;;;;10489525;28;20197;-80
2023/01/05 10:00:27;;;;;;;20.67;3.77;;;;;11.80;101690.00;;;;10504943;28;20191;-80
2023/01/05 10:05:31;;;;;;;23.33;3.73;;;;;11.70;101691.00;;;;10462814;28;20204;-80
2023/01/05 10:16:15;;;;;;;18.73;5.30;;;;;11.90;101685.00;;;;10503085;28;20201;-80
2023/01/05 10:21:47;;;;;;;24.53;4.33;;;;;11.90;101682.00;;;;10505096;28;20258;-81
2023/01/05 10:26:58;;;;;;;28.93;4.90;;;;;11.90;101670.00;;;;10462573;28;20221;-81
2023/01/05 10:32:28;;;;;;;17.77;3.83;;;;;11.80;101678.00;;;;10446213;28;20372;-80
2023/01/05 10:38:26;;;;;;;21.10;3.43;;;;;11.70;101686.00;;;;10462045;28;20200;-81
2023/01/05 10:43:46;;;;;;;25.50;4.60;;;;;11.50;101682.00;;;;10321823;28;20207;-81
2023/01/05 10:48:48;;;;;;;28.53;4.13;;;;;11.60;101683.00;;;;10454404;28;20213;-80
2023/01/05 10:53:50;;;;;;;16.77;3.47;;;;;11.90;101685.00;;;;10463703;28;20190;-81
2023/01/05 10:59:14;;;;;;;25.97;4.67;;;;;12.30;101690.00;;;;10467006;28;20193;-80
2023/01/05 11:04:23;;;;;;;18.17;3.23;;;;;12.40;101690.00;;;;10461648;28;20197;-81
2023/01/05 11:09:40;;;;;;;16.37;3.57;;;;;12.30;101682.00;;;;10447089;28;20713;-81
2023/01/05 11:14:46;;;;;;;22.07;3.67;;;;;12.30;101682.00;;;;10468799;28;20201;-81
2023/01/05 11:19:51;;;;;;;20.57;4.10;;;;;12.70;101676.00;;;;10507065;28;20228;-81
2023/01/05 11:24:52;;;;;;;17.47;3.97;;;;;12.90;101670.00;;;;10485753;28;20279;-81
2023/01/05 11:30:14;;;;;;;20.93;4.90;;;;;13.00;101681.00;;;;10476414;28;20744;-81
2023/01/05 11:35:19;;;;;;;24.17;4.50;;;;;12.90;101679.00;;;;10485079;28;20200;-81
2023/01/05 11:40:26;;;;;;;19.00;4.00;;;;;13.10;101682.00;;;;10468490;28;20189;-80
2023/01/05 11:45:39;;;;;;;22.33;3.90;;;;;13.20;101675.00;;;;10493151;28;20217;-79
2023/01/05 11:50:47;;;;;;;22.13;4.27;;;;;13.40;101671.00;;;;10515893;28;20223;-80
2023/01/05 11:56:04;;;;;;;28.00;5.00;;;;;13.30;101674.00;;;;10511610;28;20546;-80
2023/01/05 12:01:32;;;;;;;21.90;4.23;;;;;13.30;101661.00;;;;10485113;28;20181;-80
2023/01/05 12:06:51;;;;;;;23.30;3.97;;;;;13.60;101656.00;;;;10494283;28;20751;-80
2023/01/05 12:12:14;;;;;;;19.60;4.57;;;;;13.80;101652.00;;;;10466880;28;20201;-80
2023/01/05 12:17:35;;;;;;;17.50;3.85;;;;;13.60;101647.00;;;;10490988;28;20200;-80
2023/01/05 12:23:06;;;;;;;25.37;4.50;;;;;13.40;101651.00;;;;10458872;28;20221;-80
2023/01/05 12:28:21;;;;;;;18.93;4.13;;;;;13.40;101639.00;;;;10494268;28;20301;-80
2023/01/05 12:34:14;;;;;;;31.03;4.90;;;;;13.40;101647.00;;;;10478619;28;20205;-80
2023/01/05 12:39:40;;;;;;;20.83;4.50;;;;;13.30;101635.00;;;;10507109;28;20189;-80
2023/01/05 12:44:50;;;;;;;23.15;4.78;;;;;13.20;101635.00;;;;10506762;28;21023;-81
2023/01/05 12:50:01;;;;;;;26.50;6.13;;;;;13.20;101625.00;;;;10481973;28;20308;-80
2023/01/05 12:55:32;;;;;;;21.50;5.70;;;;;12.80;101616.00;;;;10456104;28;20296;-80
2023/01/05 13:00:36;;;;;;;23.80;5.47;;;;;12.40;101602.00;;;;10538215;28;20254;-80
2023/01/05 13:05:45;;;;;;;20.27;4.27;;;;;12.30;101592.00;;;;10486931;28;20212;-80
2023/01/05 13:11:29;;;;;;;32.20;5.50;;;;;12.10;101594.00;;;;10478357;28;20248;-80
2023/01/05 13:16:38;;;;;;;21.13;4.33;;;;;12.00;101584.00;;;;10306379;28;20223;-80
2023/01/05 13:21:42;;;;;;;28.73;5.27;;;;;11.80;101584.00;;;;10422724;28;20235;-80
2023/01/05 13:26:44;;;;;;;21.87;5.33;;;;;11.80;101578.00;;;;10473569;28;20221;-80
2023/01/05 13:32:04;;;;;;;24.43;4.30;;;;;12.10;101586.00;;;;10472704;28;20201;-79
2023/01/05 13:37:32;;;;;;;26.23;5.37;;;;;12.10;101580.00;;;;10480060;28;20232;-80
2023/01/05 13:42:59;;;;;;;27.77;5.80;;;;;12.00;101578.00;;;;10466427;28;20185;-79
2023/01/05 13:48:07;;;;;;;34.07;6.40;;;;;12.00;101576.00;;;;10482295;28;20221;-79
2023/01/05 13:53:17;;;;;;;25.23;5.10;;;;;11.90;101579.00;;;;10498487;28;20204;-80
2023/01/05 13:58:31;;;;;;;11.07;4.00;;;;;11.80;101573.00;;;;10478520;28;20182;-79
2023/01/05 14:03:46;;;;;;;17.20;4.07;;;;;11.80;101571.00;;;;10500012;28;20879;-80
2023/01/05 14:09:03;;;;;;;8.87;3.30;;;;;11.70;101584.00;;;;10468799;28;20238;-79
2023/01/05 14:14:25;;;;;;;9.60;3.03;;;;;11.70;101584.00;;;;10477590;28;20200;-79
2023/01/05 14:19:36;;;;;;;5.47;2.63;;;;;11.70;101580.00;;;;10500207;28;20529;-80
2023/01/05 14:24:46;;;;;;;7.53;2.73;;;;;11.80;101576.00;;;;10472763;28;20201;-80
2023/01/05 14:29:48;;;;;;;7.60;2.70;;;;;11.80;101579.00;;;;10477196;28;20215;-80
2023/01/05 14:35:04;;;;;;;4.87;2.37;;;;;11.90;101579.00;;;;10496962;28;20568;-82
2023/01/05 14:40:18;;;;;;;5.00;1.70;;;;;11.90;101578.00;;;;10479403;28;20186;-80
2023/01/05 14:45:30;;;;;;;5.07;2.33;;;;;11.80;101577.00;;;;10472623;28;20766;-81
2023/01/05 14:50:32;;;;;;;5.90;2.30;;;;;11.80;101577.00;;;;10470031;28;20752;-81
2023/01/05 14:55:37;;;;;;;7.47;2.40;;;;;12.10;101588.00;;;;10504333;28;20228;-81
2023/01/05 15:00:59;;;;;;;6.17;2.60;;;;;12.10;101573.00;;;;10510493;28;20200;-81
2023/01/05 15:06:06;;;;;;;5.60;2.73;;;;;12.00;101573.00;;;;10501204;28;20276;-80
2023/01/05 15:11:38;;;;;;;5.67;2.77;;;;;11.90;101571.00;;;;10492884;28;20204;-81
2023/01/05 15:16:52;;;;;;;6.80;2.60;;;;;11.90;101573.00;;;;10522557;28;20192;-81
2023/01/05 15:22:07;;;;;;;6.13;2.90;;;;;11.70;101568.00;;;;10484671;28;20652;-80
2023/01/05 15:27:40;;;;;;;6.70;3.00;;;;;11.60;101569.00;;;;10506823;28;20256;-81
2023/01/05 15:32:44;;;;;;;8.50;3.53;;;;;11.60;101560.00;;;;10554908;28;20184;-81
2023/01/05 15:37:51;;;;;;;7.30;5.00;;;;;11.50;101565.00;;;;10508696;28;20188;-81
2023/01/05 15:43:00;;;;;;;13.00;8.97;;;;;11.50;101561.00;;;;10482120;28;20280;-80
2023/01/05 15:48:13;;;;;;;8.40;5.57;;;;;11.50;101564.00;;;;10487201;28;20200;-80
2023/01/05 15:53:24;;;;;;;15.47;7.90;;;;;11.50;101552.00;;;;10487529;28;20295;-80
2023/01/05 15:58:30;;;;;;;16.67;8.80;;;;;11.50;101554.00;;;;10525573;28;20198;-80
2023/01/05 16:03:37;;;;;;;6.83;4.27;;;;;11.50;101541.00;;;;10542232;28;20673;-80
2023/01/05 16:08:42;;;;;;;10.63;3.90;;;;;11.50;101547.00;;;;10527010;28;20201;-80
2023/01/05 16:13:55;;;;;;;7.40;4.33;;;;;11.50;101545.00;;;;10479818;28;20709;-79
2023/01/05 16:19:22;;;;;;;10.63;4.33;;;;;11.50;101555.00;;;;10498539;28;20184;-80
2023/01/05 16:24:39;;;;;;;6.47;4.20;;;;;11.50;101534.00;;;;10505497;28;20201;-80
2023/01/05 16:29:43;;;;;;;5.90;4.37;;;;;11.50;101538.00;;;;10509651;28;20595;-80
2023/01/05 16:34:45;;;;;;;6.33;4.13;;;;;11.50;101549.00;;;;10510162;28;20184;-80
2023/01/05 16:39:47;;;;;;;5.77;5.10;;;;;11.40;101533.00;;;;10518691;28;20189;-81
2023/01/05 16:44:54;;;;;;;5.30;3.97;;;;;11.40;101540.00;;;;10519259;28;20259;-81
2023/01/05 16:49:56;;;;;;;5.03;4.03;;;;;11.40;101537.00;;;;10492299;28;20201;-81
2023/01/05 16:55:25;;;;;;;5.73;4.97;;;;;11.30;101530.00;;;;10518120;28;20231;-81
2023/01/05 17:00:32;;;;;;;4.93;4.10;;;;;11.20;101529.00;;;;10511774;28;20197;-80
2023/01/05 17:05:34;;;;;;;5.37;4.80;;;;;11.20;101528.00;;;;10509083;28;20196;-80
2023/01/05 17:10:36;;;;;;;5.73;4.40;;;;;11.20;101525.00;;;;10485642;28;20272;-80
2023/01/05 17:15:42;;;;;;;7.70;4.77;;;;;11.30;101521.00;;;;10544907;28;20254;-80
2023/01/05 17:20:45;;;;;;;6.17;4.03;;;;;11.30;101521.00;;;;10521561;28;20196;-81
2023/01/05 17:25:47;;;;;;;6.67;4.63;;;;;11.20;101523.00;;;;10494276;28;20602;-81
2023/01/05 17:30:52;;;;;;;9.23;6.20;;;;;11.20;101521.00;;;;10492880;28;20687;-81
2023/01/05 17:35:54;;;;;;;7.87;4.60;;;;;11.20;101525.00;;;;10486238;28;20205;-80
2023/01/05 17:40:57;;;;;;;5.00;4.47;;;;;11.30;101511.00;;;;10504180;28;20226;-81
2023/01/05 17:45:59;;;;;;;8.37;5.33;;;;;11.20;101513.00;;;;10499831;28;20188;-81
2023/01/05 17:51:01;;;;;;;5.73;4.60;;;;;11.20;101524.00;;;;10498012;28;20258;-81
2023/01/05 17:56:04;;;;;;;6.10;4.83;;;;;11.20;101524.00;;;;10493231;28;20193;-80
2023/01/05 18:01:06;;;;;;;8.93;6.50;;;;;11.30;101511.00;;;;10471305;28;20540;-80
2023/01/05 18:06:08;;;;;;;9.30;6.23;;;;;11.30;101514.00;;;;10517239;28;20231;-81
2023/01/05 18:11:10;;;;;;;8.10;5.67;;;;;11.30;101499.00;;;;10527693;28;20208;-80
2023/01/05 18:16:12;;;;;;;8.03;6.40;;;;;11.30;101511.00;;;;10499760;28;20192;-80
2023/01/05 18:21:14;;;;;;;11.77;7.63;;;;;11.30;101496.00;;;;10510092;28;20279;-81
2023/01/05 18:26:16;;;;;;;11.37;8.10;;;;;11.30;101494.00;;;;10481900;28;20228;-80
2023/01/05 18:31:18;;;;;;;12.27;8.03;;;;;11.30;101499.00;;;;10470803;28;20938;-80
2023/01/05 18:36:19;;;;;;;7.57;5.50;;;;;11.30;101494.00;;;;10490906;28;20249;-80
2023/01/05 18:41:23;;;;;;;7.30;5.60;;;;;11.30;101503.00;;;;10518774;28;20188;-80
2023/01/05 18:46:24;;;;;;;7.90;5.87;;;;;11.30;101506.00;;;;10499751;28;20650;-80
2023/01/05 18:51:26;;;;;;;9.07;5.77;;;;;11.30;101509.00;;;;10508714;28;20212;-80
2023/01/05 18:56:28;;;;;;;4.23;3.00;;;;;11.30;101504.00;;;;10483211;28;20738;-80
2023/01/05 19:01:30;;;;;;;7.07;3.63;;;;;11.20;101501.00;;;;10502375;28;20578;-80
2023/01/05 19:06:32;;;;;;;7.43;4.50;;;;;11.10;101491.00;;;;10502820;28;20185;-80
2023/01/05 19:11:35;;;;;;;7.67;5.20;;;;;11.00;101500.00;;;;10461174;28;20315;-80
2023/01/05 19:16:37;;;;;;;5.17;3.13;;;;;11.00;101495.00;;;;10473280;28;20267;-80
2023/01/05 19:21:41;;;;;;;6.03;3.50;;;;;11.00;101496.00;;;;10502626;28;20213;-80
2023/01/05 19:26:44;;;;;;;5.53;2.93;;;;;11.00;101495.00;;;;10470995;28;20582;-80
2023/01/05 19:31:47;;;;;;;3.07;2.40;;;;;11.00;101501.00;;;;10527585;28;20232;-80
2023/01/05 19:36:49;;;;;;;5.97;2.77;;;;;11.10;101497.00;;;;10560388;28;20212;-81
2023/01/05 19:41:51;;;;;;;8.47;4.03;;;;;11.10;101498.00;;;;10524768;28;20188;-80
2023/01/05 19:46:53;;;;;;;7.90;3.47;;;;;11.10;101504.00;;;;10492816;28;20321;-79
2023/01/05 19:51:55;;;;;;;5.07;3.07;;;;;11.10;101495.00;;;;10467186;28;20202;-80
2023/01/05 19:56:57;;;;;;;7.63;4.17;;;;;11.10;101487.00;;;;10480446;28;20288;-80
2023/01/05 20:02:00;;;;;;;10.47;5.27;;;;;11.20;101480.00;;;;10460013;28;20970;-80
2023/01/05 20:07:02;;;;;;;7.90;5.20;;;;;11.20;101482.00;;;;10476594;28;20205;-80
2023/01/05 20:12:05;;;;;;;11.53;4.70;;;;;11.10;101480.00;;;;10508620;28;20181;-80
2023/01/05 20:17:17;;;;;;;9.40;5.33;;;;;11.10;101475.00;;;;10466911;28;20194;-80
2023/01/05 20:22:19;;;;;;;7.30;3.37;;;;;11.10;101481.00;;;;10454464;28;20223;-80
2023/01/05 20:27:21;;;;;;;7.20;3.67;;;;;11.10;101482.00;;;;10505166;28;20243;-80
2023/01/05 20:32:24;;;;;;;10.47;3.50;;;;;11.00;101470.00;;;;10508312;28;20200;-80
2023/01/05 20:37:28;;;;;;;8.37;3.17;;;;;11.10;101478.00;;;;10524785;28;20197;-80
2023/01/05 20:42:30;;;;;;;6.37;3.17;;;;;11.10;101483.00;;;;10507491;28;20221;-79
2023/01/05 20:47:32;;;;;;;10.03;3.03;;;;;11.10;101483.00;;;;10458714;28;20262;-79
2023/01/05 20:52:48;;;;;;;7.50;3.10;;;;;11.10;101494.00;;;;10522178;28;20191;-80
2023/01/05 20:57:50;;;;;;;7.37;2.57;;;;;11.10;101475.00;;;;10487930;28;20283;-80
2023/01/05 21:02:52;;;;;;;5.90;2.87;;;;;11.10;101475.00;;;;10474071;28;20801;-80
2023/01/05 21:07:54;;;;;;;7.07;3.07;;;;;11.10;101469.00;;;;10523629;28;20606;-79
2023/01/05 21:12:58;;;;;;;5.97;3.77;;;;;11.10;101465.00;;;;10490358;28;20196;-79
2023/01/05 21:18:20;;;;;;;6.60;4.47;;;;;11.00;101474.00;;;;10480770;28;20177;-79
2023/01/05 21:23:22;;;;;;;9.70;4.40;;;;;11.00;101469.00;;;;10472820;28;20526;-80
2023/01/05 21:28:24;;;;;;;7.57;4.23;;;;;11.00;101477.00;;;;10436986;28;20272;-79
2023/01/05 21:33:26;;;;;;;7.20;4.60;;;;;11.00;101470.00;;;;10500894;28;20196;-79
2023/01/05 21:38:28;;;;;;;6.00;3.67;;;;;11.00;101465.00;;;;10467973;28;20182;-79
2023/01/05 21:43:50;;;;;;;6.17;3.03;;;;;11.00;101460.00;;;;10446781;28;20554;-80
2023/01/05 21:48:52;;;;;;;10.03;3.53;;;;;11.10;101452.00;;;;10462276;28;20213;-80
2023/01/05 21:59:14;;;;;;;4.97;2.47;;;;;11.00;101438.00;;;;10471403;28;20638;-80
2023/01/05 22:04:16;;;;;;;3.33;1.83;;;;;11.00;101451.00;;;;10491490;28;20212;-80
2023/01/05 22:09:18;;;;;;;3.30;2.17;;;;;11.00;101437.00;;;;10499598;28;20705;-79
2023/01/05 22:14:20;;;;;;;5.97;1.53;;;;;11.00;101436.00;;;;10487472;28;20197;-79
2023/01/05 22:19:22;;;;;;;2.37;1.03;;;;;11.00;101433.00;;;;10470534;28;20196;-79
2023/01/05 22:24:24;;;;;;;3.60;2.00;;;;;11.00;101430.00;;;;10478411;28;20570;-80
2023/01/05 22:29:26;;;;;;;3.30;1.47;;;;;10.90;101429.00;;;;10519249;28;20211;-80
2023/01/05 22:34:28;;;;;;;2.57;1.30;;;;;10.90;101430.00;;;;10486777;28;20189;-80
2023/01/05 22:39:30;;;;;;;4.70;1.37;;;;;10.80;101410.00;;;;10486644;28;20436;-80
2023/01/05 22:44:32;;;;;;;7.20;1.60;;;;;10.80;101413.00;;;;10486732;28;20559;-79
2023/01/05 22:49:34;;;;;;;4.03;1.67;;;;;10.80;101417.00;;;;10503490;28;20834;-79
2023/01/05 22:54:38;;;;;;;6.43;1.63;;;;;10.80;101418.00;;;;10479737;28;20198;-80
2023/01/05 22:59:40;;;;;;;4.97;1.70;;;;;10.90;101409.00;;;;10478886;28;20268;-80
2023/01/05 23:04:42;;;;;;;4.30;1.93;;;;;10.90;101416.00;;;;10475466;28;20186;-80
2023/01/05 23:09:44;;;;;;;3.97;1.40;;;;;10.90;101419.00;;;;10504881;28;20212;-80
2023/01/05 23:14:46;;;;;;;5.20;1.40;;;;;11.00;101416.00;;;;10488099;28;20200;-80
2023/01/05 23:19:48;;;;;;;6.67;1.73;;;;;11.00;101425.00;;;;10480781;28;20220;-80
2023/01/05 23:24:50;;;;;;;6.07;2.07;;;;;11.00;101419.00;;;;10477400;28;20215;-79
2023/01/05 23:29:51;;;;;;;3.23;1.17;;;;;11.00;101418.00;;;;10510170;28;20561;-80
2023/01/05 23:34:53;;;;;;;1.73;1.30;;;;;10.90;101420.00;;;;10509455;28;20638;-80
2023/01/05 23:39:55;;;;;;;5.87;1.50;;;;;10.90;101408.00;;;;10542161;28;20200;-80
2023/01/05 23:44:57;;;;;;;2.57;1.30;;;;;10.90;101401.00;;;;10504899;28;20271;-80
2023/01/05 23:49:59;;;;;;;4.03;1.33;;;;;10.90;101391.00;;;;10496891;28;20266;-80
2023/01/05 23:55:01;;;;;;;4.77;1.53;;;;;10.90;101388.00;;;;10534858;28;20598;-80
